Time;durP1;ratioP1;P1;durP2;ratioP2;P2;SDS_P1;SDS_P2;PMS_P1;PMS_P2;Temp;Humidity;BMP_temperature;BMP_pressure;BME280_temperature;BME280_humidity;BME280_pressure;Samples;Min_cycle;Max_cycle;Signal;HPM_P1;HPM_P2
2021/12/05 00:19:35;;;;;;;0.10;0.10;;;3.90;99.90;2.50;95204.00;;;;5047662;28;20203;-74
2021/12/05 00:22:12;;;;;;;0.10;0.10;;;3.90;99.90;2.60;95286.00;;;;5032445;28;20658;-74
2021/12/05 00:24:44;;;;;;;0.10;0.10;;;3.90;99.90;2.60;95179.00;;;;5046478;28;20198;-74
2021/12/05 00:27:16;;;;;;;0.10;0.10;;;3.90;99.90;2.10;93753.00;;;;5030914;28;20194;-73
2021/12/05 00:29:56;;;;;;;0.10;0.10;;;3.90;99.90;2.10;94371.00;;;;5031822;28;20635;-74
2021/12/05 00:32:32;;;;;;;0.10;0.10;;;3.90;99.90;2.60;95301.00;;;;5031164;28;20719;-74
2021/12/05 00:35:34;;;;;;;0.10;0.10;;;3.90;99.90;2.70;95303.00;;;;5032471;28;20256;-74
2021/12/05 00:41:32;;;;;;;0.10;0.10;;;3.90;99.90;2.50;95043.00;;;;5029906;28;20630;-74
2021/12/05 00:47:07;;;;;;;0.10;0.10;;;3.90;99.90;2.50;94899.00;;;;5031137;28;20218;-74
2021/12/05 00:52:45;;;;;;;0.10;0.10;;;4.00;99.90;2.30;94803.00;;;;5039894;28;20219;-74
2021/12/05 01:01:16;;;;;;;0.10;0.10;;;3.90;99.90;2.50;94959.00;;;;5030743;28;20640;-74
2021/12/05 01:04:11;;;;;;;0.10;0.10;;;4.00;99.90;2.50;95101.00;;;;5037808;28;21039;-74
2021/12/05 01:09:41;;;;;;;0.10;0.10;;;3.90;99.90;226.50;231333.00;;;;5039416;28;20620;-74
2021/12/05 01:12:30;;;;;;;0.10;0.10;;;3.90;99.90;226.50;231333.00;;;;5032508;28;20183;-74
2021/12/05 01:15:04;;;;;;;0.10;0.10;;;3.90;99.90;226.50;231333.00;;;;5036893;28;20634;-74
2021/12/05 01:17:49;;;;;;;0.10;0.10;;;3.90;99.90;226.50;231333.00;;;;5044199;28;20656;-73
2021/12/05 01:20:20;;;;;;;0.10;0.10;;;3.90;99.90;226.50;231333.00;;;;5055805;28;20203;-73
2021/12/05 01:22:58;;;;;;;0.10;0.10;;;3.90;99.90;226.50;231333.00;;;;5046452;28;20214;-73
2021/12/05 01:25:39;;;;;;;0.10;0.10;;;3.90;99.90;226.50;231333.00;;;;5030660;28;20501;-74
2021/12/05 01:28:15;;;;;;;0.10;0.10;;;3.90;99.90;226.50;231333.00;;;;5047574;28;20203;-74
2021/12/05 01:30:49;;;;;;;0.10;0.10;;;3.90;99.90;226.50;231333.00;;;;5039112;28;20703;-74
2021/12/05 01:33:25;;;;;;;0.10;0.10;;;3.90;99.90;226.50;231333.00;;;;5040623;28;20217;-74
2021/12/05 01:36:06;;;;;;;0.10;0.10;;;3.80;99.90;226.50;231333.00;;;;5031711;28;20248;-73
2021/12/05 01:38:58;;;;;;;0.10;0.10;;;3.90;99.90;226.50;231333.00;;;;5032862;28;20202;-75
2021/12/05 01:53:15;;;;;;;0.10;0.10;;;3.80;99.90;226.50;231333.00;;;;5047752;28;20983;-74
2021/12/05 01:56:09;;;;;;;0.10;0.10;;;3.90;99.90;226.50;231333.00;;;;5046528;28;20195;-73
2021/12/05 01:58:57;;;;;;;0.10;0.10;;;3.80;99.90;226.50;231333.00;;;;5040106;28;20188;-73
2021/12/05 02:01:49;;;;;;;0.10;0.10;;;3.80;99.90;226.50;231333.00;;;;5034364;28;20203;-74
2021/12/05 02:15:57;;;;;;;0.10;0.10;;;3.80;99.90;226.50;231333.00;;;;5031462;28;20202;-74
2021/12/05 02:35:34;;;;;;;0.10;0.10;;;3.70;99.90;226.50;231333.00;;;;5027980;28;20199;-74
2021/12/05 02:38:16;;;;;;;0.10;0.10;;;3.70;99.90;226.50;231333.00;;;;5037050;28;20294;-77
2021/12/05 02:40:52;;;;;;;0.10;0.10;;;3.70;99.90;226.50;231333.00;;;;5030215;28;20191;-74
2021/12/05 02:43:28;;;;;;;0.10;0.10;;;3.70;99.90;226.50;231333.00;;;;5045932;28;20219;-74
2021/12/05 02:45:59;;;;;;;0.10;0.10;;;3.60;99.90;226.50;231333.00;;;;5037373;28;20625;-74
2021/12/05 02:48:30;;;;;;;0.10;0.10;;;3.60;99.90;226.50;231333.00;;;;5047174;28;20190;-73
2021/12/05 02:51:03;;;;;;;0.10;0.10;;;3.60;99.90;226.50;231333.00;;;;5029376;28;20269;-74
2021/12/05 02:53:38;;;;;;;0.10;0.10;;;3.60;99.90;226.50;231333.00;;;;5029963;28;20593;-73
2021/12/05 02:56:08;;;;;;;0.10;0.10;;;3.60;99.90;226.50;231333.00;;;;5045149;28;20221;-76
2021/12/05 02:58:42;;;;;;;0.10;0.10;;;3.60;99.90;226.50;231333.00;;;;5028939;28;20203;-74
2021/12/05 03:01:20;;;;;;;0.10;0.10;;;3.50;99.90;226.50;231333.00;;;;5046311;28;20258;-74
2021/12/05 03:03:53;;;;;;;0.10;0.10;;;3.50;99.90;226.50;231333.00;;;;5030282;28;20226;-73
2021/12/05 03:06:27;;;;;;;0.10;0.10;;;3.50;99.90;226.50;231333.00;;;;5039270;28;20548;-74
2021/12/05 03:09:00;;;;;;;0.10;0.10;;;3.50;99.90;226.50;231333.00;;;;5029572;28;20747;-73
2021/12/05 03:11:31;;;;;;;0.10;0.10;;;3.40;99.90;226.50;231333.00;;;;5027796;28;20215;-74
2021/12/05 03:14:00;;;;;;;0.10;0.10;;;3.40;99.90;226.50;231333.00;;;;5029739;28;20226;-74
2021/12/05 03:16:33;;;;;;;0.10;0.10;;;3.40;99.90;226.50;231333.00;;;;5036455;28;20286;-74
2021/12/05 03:19:03;;;;;;;0.10;0.10;;;3.40;99.90;226.50;231333.00;;;;5040279;28;20612;-73
2021/12/05 03:21:32;;;;;;;0.10;0.10;;;3.40;99.90;226.50;231333.00;;;;5034122;28;20490;-74
2021/12/05 03:24:02;;;;;;;0.10;0.10;;;3.40;99.90;226.50;231333.00;;;;5031192;28;20215;-73
2021/12/05 03:26:34;;;;;;;0.10;0.10;;;3.30;99.90;226.50;231333.00;;;;5050323;28;20191;-74
2021/12/05 03:29:06;;;;;;;0.10;0.10;;;3.30;99.90;226.50;231333.00;;;;5033837;28;20206;-74
2021/12/05 03:31:36;;;;;;;0.10;0.10;;;3.30;99.90;226.50;231333.00;;;;5051147;28;20224;-74
2021/12/05 03:34:08;;;;;;;0.10;0.10;;;3.30;99.90;226.50;231333.00;;;;5037785;28;20706;-73
2021/12/05 03:36:43;;;;;;;0.10;0.10;;;3.30;99.90;226.50;231333.00;;;;5033415;28;20236;-73
2021/12/05 03:39:13;;;;;;;0.10;0.10;;;3.30;99.90;226.50;231333.00;;;;5034681;28;20197;-74
2021/12/05 03:41:43;;;;;;;0.10;0.10;;;3.20;99.90;226.50;160192.00;;;;5036617;28;20194;-74
2021/12/05 03:44:18;;;;;;;0.10;0.10;;;3.20;99.90;226.50;231333.00;;;;5030323;28;20586;-76
2021/12/05 03:46:48;;;;;;;0.10;0.10;;;3.20;99.90;226.50;231333.00;;;;5044641;28;20257;-75
2021/12/05 03:49:17;;;;;;;0.10;0.10;;;3.20;99.90;226.50;231333.00;;;;5026451;28;20245;-72
2021/12/05 03:51:51;;;;;;;0.10;0.10;;;3.20;99.90;226.50;231333.00;;;;5043366;28;20683;-76
2021/12/05 03:54:22;;;;;;;0.10;0.10;;;3.20;99.90;226.50;231333.00;;;;5029063;28;20660;-74
2021/12/05 03:56:50;;;;;;;0.10;0.10;;;3.20;99.90;226.50;231333.00;;;;5044174;28;20714;-73
2021/12/05 03:59:19;;;;;;;0.10;0.10;;;3.10;99.90;226.50;231333.00;;;;5028481;28;20568;-73
2021/12/05 04:01:48;;;;;;;0.10;0.10;;;3.10;99.90;226.50;231333.00;;;;5028417;28;20249;-71
2021/12/05 04:04:18;;;;;;;0.10;0.10;;;3.10;99.90;226.50;231333.00;;;;5029442;28;20218;-71
2021/12/05 04:06:48;;;;;;;0.10;0.10;;;3.10;99.90;226.50;231333.00;;;;5036234;28;20199;-71
2021/12/05 04:09:19;;;;;;;0.10;0.10;;;3.20;99.90;226.50;231333.00;;;;5034542;28;20198;-73
2021/12/05 04:11:59;;;;;;;0.10;0.10;;;3.20;99.90;226.50;231333.00;;;;5026236;28;20222;-74
2021/12/05 04:14:38;;;;;;;0.10;0.10;;;3.20;99.90;226.50;231333.00;;;;5028506;28;20201;-74
2021/12/05 04:17:12;;;;;;;0.10;0.10;;;3.20;99.90;226.50;231333.00;;;;5043887;28;20203;-72
2021/12/05 04:19:41;;;;;;;0.10;0.10;;;3.10;99.90;226.50;231333.00;;;;5044415;28;20191;-73
2021/12/05 04:22:10;;;;;;;0.10;0.10;;;3.10;99.90;226.50;231333.00;;;;5028449;28;20534;-73
2021/12/05 04:24:41;;;;;;;0.10;0.10;;;3.10;99.90;226.50;231333.00;;;;5030713;28;20540;-74
2021/12/05 04:27:12;;;;;;;0.10;0.10;;;3.10;99.90;226.50;231333.00;;;;5031513;28;21080;-73
2021/12/05 04:29:41;;;;;;;0.10;0.10;;;3.10;99.90;226.50;231333.00;;;;5044527;28;20218;-73
2021/12/05 04:32:11;;;;;;;0.10;0.10;;;3.10;99.90;226.50;231333.00;;;;5034968;28;20233;-73
2021/12/05 04:34:39;;;;;;;0.10;0.10;;;3.10;99.90;226.50;231333.00;;;;5043273;28;20248;-73
2021/12/05 04:37:08;;;;;;;0.10;0.10;;;3.10;99.90;226.50;231333.00;;;;5026904;28;20191;-72
2021/12/05 04:39:37;;;;;;;0.10;0.10;;;3.10;99.90;226.50;231333.00;;;;5028521;28;20194;-75
2021/12/05 04:42:07;;;;;;;0.10;0.10;;;3.10;99.90;226.50;231333.00;;;;5034448;28;20210;-72
2021/12/05 04:44:36;;;;;;;0.10;0.10;;;3.10;99.90;226.50;231333.00;;;;5028270;28;20683;-72
2021/12/05 04:47:06;;;;;;;0.10;0.10;;;3.10;99.90;226.50;231333.00;;;;5042701;28;20284;-72
2021/12/05 04:49:34;;;;;;;0.10;0.10;;;3.10;99.90;226.50;231333.00;;;;5028213;28;20199;-72
2021/12/05 04:52:05;;;;;;;0.10;0.10;;;3.10;99.90;226.50;231333.00;;;;5027269;28;20289;-72
2021/12/05 04:54:34;;;;;;;0.10;0.10;;;3.10;99.90;226.50;231333.00;;;;5029932;28;20233;-73
2021/12/05 04:57:03;;;;;;;0.10;0.10;;;3.10;99.90;226.50;231333.00;;;;5038301;28;20195;-73
2021/12/05 04:59:36;;;;;;;0.10;0.10;;;3.10;99.90;226.50;231333.00;;;;5038087;28;20191;-74
2021/12/05 05:02:08;;;;;;;0.10;0.10;;;3.10;99.90;226.50;231333.00;;;;5038169;28;20202;-72
2021/12/05 05:04:42;;;;;;;0.10;0.10;;;3.10;99.90;226.50;231333.00;;;;5032196;28;20198;-73
2021/12/05 05:07:21;;;;;;;0.10;0.10;;;3.10;99.90;226.50;231333.00;;;;5031194;28;20571;-74
2021/12/05 05:09:51;;;;;;;0.10;0.10;;;3.10;99.90;226.50;231333.00;;;;5034080;28;20659;-73
2021/12/05 05:12:20;;;;;;;0.10;0.10;;;3.00;99.90;226.50;231333.00;;;;5034108;28;20218;-73
2021/12/05 05:14:50;;;;;;;0.10;0.10;;;3.00;99.90;226.50;231333.00;;;;5032355;28;20257;-73
2021/12/05 05:17:20;;;;;;;0.10;0.10;;;3.00;99.90;226.50;231333.00;;;;5031913;28;20198;-72
2021/12/05 05:19:51;;;;;;;0.10;0.10;;;2.90;99.90;226.50;231333.00;;;;5031544;28;20194;-72
2021/12/05 05:22:30;;;;;;;0.10;0.10;;;2.90;99.90;226.50;231333.00;;;;5031227;28;20276;-74
2021/12/05 05:30:46;;;;;;;0.10;0.10;;;2.90;99.90;226.50;231333.00;;;;5031936;28;20210;-74
2021/12/05 05:39:23;;;;;;;0.10;0.10;;;2.90;99.90;226.50;231333.00;;;;5028575;28;20202;-74
2021/12/05 05:42:22;;;;;;;0.10;0.10;;;2.80;99.90;226.50;231333.00;;;;5030775;28;20203;-74
2021/12/05 05:47:53;;;;;;;0.10;0.10;;;2.80;99.90;226.50;231333.00;;;;4991660;28;20201;-74
2021/12/05 05:50:23;;;;;;;0.10;0.10;;;2.80;99.90;226.50;231333.00;;;;5030937;28;20430;-74
2021/12/05 05:52:51;;;;;;;0.10;0.10;;;2.80;99.90;226.50;231333.00;;;;5030924;28;20266;-74
2021/12/05 05:55:20;;;;;;;0.10;0.10;;;2.80;99.90;226.50;231333.00;;;;5030582;28;20199;-74
2021/12/05 05:57:58;;;;;;;0.10;0.10;;;2.80;99.90;226.50;231333.00;;;;5030701;28;20741;-74
2021/12/05 06:00:32;;;;;;;0.10;0.10;;;2.80;99.90;226.50;231333.00;;;;5029147;28;20733;-74
2021/12/05 06:03:21;;;;;;;0.10;0.10;;;2.70;99.90;226.50;231333.00;;;;5030676;28;20225;-74
2021/12/05 06:05:55;;;;;;;0.10;0.10;;;2.70;99.90;226.50;231333.00;;;;5030000;28;20290;-74
2021/12/05 06:08:27;;;;;;;0.10;0.10;;;2.70;99.90;226.50;231333.00;;;;5028971;28;20676;-75
2021/12/05 06:11:01;;;;;;;0.10;0.10;;;2.70;99.90;226.50;231333.00;;;;5028273;28;20237;-74
2021/12/05 06:13:30;;;;;;;0.10;0.10;;;2.70;99.90;226.50;231333.00;;;;5030201;28;20237;-72
2021/12/05 06:15:58;;;;;;;0.10;0.10;;;2.70;99.90;226.50;231333.00;;;;5030030;28;20199;-72
2021/12/05 06:18:27;;;;;;;0.10;0.10;;;2.70;99.90;226.50;231333.00;;;;5030418;28;20202;-74
2021/12/05 06:20:58;;;;;;;0.10;0.10;;;2.70;99.90;226.50;231333.00;;;;5030277;28;20222;-74
2021/12/05 06:23:26;;;;;;;0.10;0.10;;;2.70;99.90;226.50;231333.00;;;;5030021;28;20219;-73
2021/12/05 06:25:55;;;;;;;0.10;0.10;;;2.70;99.90;226.50;231333.00;;;;5030177;28;20450;-72
2021/12/05 06:28:29;;;;;;;0.10;0.10;;;2.70;99.90;226.50;231333.00;;;;5044791;28;20233;-74
2021/12/05 06:31:07;;;;;;;0.10;0.10;;;2.70;99.90;226.50;231333.00;;;;5030281;28;20536;-75
2021/12/05 06:42:19;;;;;;;0.10;0.10;;;2.70;99.90;226.50;231333.00;;;;5029076;28;20206;-73
2021/12/05 06:47:34;;;;;;;0.10;0.10;;;2.70;99.90;226.50;231333.00;;;;5028490;28;20203;-73
2021/12/05 06:50:02;;;;;;;0.10;0.10;;;2.70;99.90;226.50;231333.00;;;;5027452;28;20195;-72
2021/12/05 06:52:44;;;;;;;0.10;0.10;;;2.70;99.90;226.50;231333.00;;;;5029002;28;20219;-73
2021/12/05 06:55:16;;;;;;;0.10;0.10;;;2.60;99.90;226.50;231333.00;;;;5029804;28;20199;-74
2021/12/05 06:57:46;;;;;;;0.13;0.13;;;2.70;99.90;226.50;231333.00;;;;5043430;28;20195;-73
2021/12/05 07:00:20;;;;;;;0.10;0.10;;;2.70;99.90;226.50;231333.00;;;;5029354;28;20187;-73
2021/12/05 07:02:48;;;;;;;0.10;0.10;;;2.70;99.90;226.50;231333.00;;;;5044539;28;20262;-73
2021/12/05 07:08:00;;;;;;;0.10;0.10;;;2.70;99.90;226.50;231333.00;;;;5027077;28;20643;-73
2021/12/05 07:10:31;;;;;;;0.10;0.10;;;2.70;99.90;226.50;231333.00;;;;5028868;28;20206;-72
2021/12/05 07:15:48;;;;;;;0.10;0.10;;;2.80;99.90;226.50;231333.00;;;;5028822;28;20667;-73
2021/12/05 07:23:57;;;;;;;0.10;0.10;;;2.90;99.90;226.50;231333.00;;;;5027324;28;20491;-73
2021/12/05 07:26:32;;;;;;;0.10;0.10;;;2.90;99.90;226.50;231333.00;;;;5043370;28;20198;-73
2021/12/05 07:42:49;;;;;;;0.10;0.10;;;3.00;99.90;226.50;231333.00;;;;5026528;28;20771;-73
2021/12/05 07:45:23;;;;;;;0.10;0.10;;;3.10;99.90;226.50;231333.00;;;;5028882;28;20203;-73
2021/12/05 07:47:53;;;;;;;0.15;0.15;;;3.20;99.90;226.50;231333.00;;;;5028643;28;20207;-73
2021/12/05 07:50:33;;;;;;;0.10;0.10;;;3.20;99.90;226.50;231333.00;;;;5028694;28;20210;-73
2021/12/05 07:53:07;;;;;;;0.10;0.10;;;3.20;99.90;226.50;231333.00;;;;5029109;28;20280;-73
2021/12/05 07:55:41;;;;;;;0.10;0.10;;;3.20;99.90;226.50;231333.00;;;;5029311;28;20191;-73
2021/12/05 07:58:23;;;;;;;0.10;0.10;;;3.20;99.90;226.50;231333.00;;;;5030293;28;20253;-73
2021/12/05 08:01:14;;;;;;;0.10;0.10;;;3.10;99.90;226.50;231333.00;;;;5030729;28;20308;-73
2021/12/05 08:14:48;;;;;;;0.10;0.10;;;3.10;99.90;226.50;231333.00;;;;5029499;28;20191;-72
2021/12/05 08:17:19;;;;;;;0.10;0.10;;;3.10;99.90;226.50;231333.00;;;;5029237;28;20188;-72
2021/12/05 08:19:48;;;;;;;0.10;0.10;;;3.10;99.90;226.50;231333.00;;;;5029961;28;20703;-72
2021/12/05 08:22:17;;;;;;;0.10;0.10;;;3.10;99.90;226.50;231333.00;;;;5028719;28;20619;-73
2021/12/05 08:24:47;;;;;;;0.10;0.10;;;3.20;99.90;226.50;231333.00;;;;5033086;28;20604;-73
2021/12/05 08:27:17;;;;;;;0.10;0.10;;;3.20;99.90;226.50;231333.00;;;;5041727;28;20261;-73
2021/12/05 08:29:49;;;;;;;0.10;0.10;;;3.20;99.90;226.50;231333.00;;;;5050119;28;20225;-73
2021/12/05 08:32:29;;;;;;;0.10;0.10;;;3.10;99.90;226.50;231333.00;;;;5062380;28;20659;-73
2021/12/05 08:35:11;;;;;;;0.10;0.10;;;3.20;99.90;226.50;231333.00;;;;5047488;28;20196;-73
2021/12/05 08:41:13;;;;;;;0.10;0.10;;;3.20;99.90;226.50;231333.00;;;;5045417;28;20187;-72
2021/12/05 08:43:59;;;;;;;0.10;0.10;;;3.30;99.90;226.50;231333.00;;;;5031266;28;20281;-73
2021/12/05 09:30:59;;;;;;;0.10;0.10;;;3.40;99.90;226.50;231333.00;;;;5005304;28;20211;-74
2021/12/05 09:39:43;;;;;;;0.10;0.10;;;3.50;99.90;226.50;231333.00;;;;5028810;28;20265;-73
2021/12/05 10:01:30;;;;;;;0.10;0.10;;;3.60;99.90;226.50;231333.00;;;;5008638;28;20583;-73
2021/12/05 10:02:23;;;;;;;0.10;0.10;;;3.70;99.90;226.50;231333.00;;;;5030287;28;20191;-72
2021/12/05 10:08:02;;;;;;;0.10;0.10;;;3.70;99.90;226.50;231333.00;;;;5030819;28;20734;-72
2021/12/05 10:10:37;;;;;;;0.10;0.10;;;3.70;99.90;226.50;231333.00;;;;5030872;28;20221;-72
2021/12/05 10:16:07;;;;;;;0.10;0.10;;;3.80;99.90;226.50;231333.00;;;;5028487;28;20210;-72
2021/12/05 10:36:03;;;;;;;0.10;0.10;;;4.20;99.90;226.50;231333.00;;;;5032448;28;20272;-72
2021/12/05 10:38:39;;;;;;;0.10;0.10;;;4.20;99.90;226.50;231333.00;;;;5029624;28;20265;-72
2021/12/05 10:41:47;;;;;;;0.10;0.10;;;4.30;99.90;226.50;231333.00;;;;5030601;28;20207;-72
2021/12/05 10:44:16;;;;;;;0.10;0.10;;;4.30;99.90;226.50;231333.00;;;;5030358;28;20633;-72
2021/12/05 10:46:50;;;;;;;0.10;0.10;;;4.30;99.90;226.50;231333.00;;;;5030242;28;20260;-74
2021/12/05 10:49:19;;;;;;;0.10;0.10;;;4.30;99.90;226.50;231333.00;;;;5030365;28;20249;-72
2021/12/05 10:51:51;;;;;;;0.10;0.10;;;4.30;99.90;226.50;231333.00;;;;5029826;28;20187;-72
2021/12/05 10:54:22;;;;;;;0.10;0.10;;;4.30;99.90;226.50;231333.00;;;;5030957;28;20215;-72
2021/12/05 10:56:56;;;;;;;0.10;0.10;;;4.30;99.90;226.50;231333.00;;;;5030391;28;20241;-72
2021/12/05 10:59:31;;;;;;;0.10;0.10;;;4.40;99.90;226.50;231333.00;;;;5042986;28;20195;-74
2021/12/05 11:02:03;;;;;;;0.10;0.10;;;4.40;99.90;226.50;231333.00;;;;5045915;28;20716;-75
2021/12/05 11:04:35;;;;;;;0.10;0.10;;;4.40;99.90;226.50;231333.00;;;;5044727;28;20278;-74
2021/12/05 11:07:08;;;;;;;0.10;0.10;;;4.40;99.90;226.50;231333.00;;;;5043572;28;20207;-75
2021/12/05 11:09:38;;;;;;;0.10;0.10;;;4.40;99.90;226.50;231333.00;;;;5045791;28;20258;-75
2021/12/05 11:12:14;;;;;;;0.10;0.10;;;4.50;99.90;226.50;231333.00;;;;5043225;28;20215;-74
2021/12/05 11:14:45;;;;;;;0.10;0.10;;;4.50;99.90;226.50;231333.00;;;;5044739;28;20241;-75
2021/12/05 11:17:17;;;;;;;0.10;0.10;;;4.50;99.90;226.50;231333.00;;;;5040945;28;20199;-75
2021/12/05 11:19:49;;;;;;;0.10;0.10;;;4.50;99.90;226.50;231333.00;;;;5041496;28;20206;-75
2021/12/05 11:22:21;;;;;;;0.10;0.10;;;4.50;99.90;226.50;231333.00;;;;5038888;28;20568;-75
2021/12/05 11:24:54;;;;;;;0.10;0.10;;;4.60;99.90;226.50;231333.00;;;;5039047;28;20221;-75
2021/12/05 11:27:29;;;;;;;0.10;0.10;;;4.60;99.90;226.50;231333.00;;;;5035453;28;20253;-75
2021/12/05 11:30:14;;;;;;;0.10;0.10;;;4.70;99.90;226.50;231333.00;;;;5038812;28;20285;-75
2021/12/05 11:32:50;;;;;;;0.10;0.10;;;4.70;99.90;226.50;231333.00;;;;5030743;28;20762;-73
2021/12/05 11:35:28;;;;;;;0.05;0.05;;;4.90;99.90;226.50;231333.00;;;;5028822;28;20252;-74
2021/12/05 11:38:03;;;;;;;0.00;0.00;;;5.00;99.90;226.50;231333.00;;;;5033127;28;21384;-75
2021/12/05 11:40:49;;;;;;;0.10;0.10;;;5.00;99.90;226.50;231333.00;;;;5039338;28;20297;-75
2021/12/05 11:43:28;;;;;;;0.10;0.10;;;4.90;99.90;226.50;231333.00;;;;5041415;28;20272;-75
2021/12/05 11:46:04;;;;;;;0.10;0.10;;;5.20;99.90;226.50;231333.00;;;;5040841;28;20211;-75
2021/12/05 11:48:37;;;;;;;0.10;0.10;;;5.80;99.90;226.50;231333.00;;;;5033944;28;20194;-76
2021/12/05 11:51:27;;;;;;;0.10;0.10;;;6.40;99.90;226.50;231333.00;;;;5034799;28;20252;-75
2021/12/05 11:53:58;;;;;;;0.10;0.10;;;7.20;99.90;226.50;231333.00;;;;5033909;28;20222;-75
2021/12/05 11:56:44;;;;;;;0.10;0.10;;;7.80;99.90;226.50;231333.00;;;;5032633;28;20191;-75
2021/12/05 11:59:20;;;;;;;0.10;0.10;;;7.90;99.90;226.50;231333.00;;;;5033546;28;20746;-75
2021/12/05 12:01:57;;;;;;;0.10;0.10;;;7.20;99.90;226.50;231333.00;;;;5033048;28;20218;-76
2021/12/05 12:04:41;;;;;;;0.10;0.10;;;6.80;99.90;226.50;231333.00;;;;5053796;28;20213;-75
2021/12/05 12:07:29;;;;;;;0.10;0.10;;;6.90;99.90;226.50;231333.00;;;;5037882;28;20202;-75
2021/12/05 12:10:02;;;;;;;0.10;0.10;;;7.60;99.90;226.50;231333.00;;;;5037792;28;20660;-75
2021/12/05 12:12:30;;;;;;;0.00;0.00;;;8.30;99.90;226.50;231333.00;;;;5035518;28;20218;-75
2021/12/05 12:15:00;;;;;;;0.00;0.00;;;8.50;99.90;226.50;231333.00;;;;5034594;28;20578;-73
2021/12/05 12:17:30;;;;;;;0.10;0.10;;;8.70;99.90;226.50;231333.00;;;;5033307;28;20249;-73
2021/12/05 12:19:58;;;;;;;0.10;0.10;;;8.60;99.90;226.50;231333.00;;;;5035331;28;20195;-75
2021/12/05 12:22:28;;;;;;;0.10;0.10;;;8.80;99.90;226.50;231333.00;;;;5036826;28;20274;-75
2021/12/05 12:25:02;;;;;;;0.10;0.10;;;8.90;99.90;226.50;231333.00;;;;5036460;28;20256;-77
2021/12/05 12:27:31;;;;;;;0.03;0.03;;;8.80;99.90;226.50;231333.00;;;;5037005;28;20601;-77
2021/12/05 12:30:04;;;;;;;0.10;0.10;;;8.50;99.90;226.50;231333.00;;;;5037325;28;20203;-77
2021/12/05 12:32:37;;;;;;;0.10;0.10;;;8.40;99.90;226.50;231333.00;;;;5035477;28;20223;-75
2021/12/05 12:35:11;;;;;;;0.10;0.10;;;7.90;99.90;226.50;231333.00;;;;5036099;28;20218;-75
2021/12/05 12:38:00;;;;;;;0.10;0.10;;;7.10;99.90;226.50;231333.00;;;;5035004;28;20196;-75
2021/12/05 12:40:43;;;;;;;0.10;0.10;;;6.70;99.90;226.50;231333.00;;;;5039206;28;20214;-74
2021/12/05 12:43:44;;;;;;;0.10;0.10;;;6.50;99.90;226.50;231333.00;;;;5039475;28;20211;-74
2021/12/05 12:46:28;;;;;;;0.10;0.10;;;6.20;99.90;226.50;231333.00;;;;5044728;28;20214;-75
2021/12/05 12:49:20;;;;;;;0.10;0.10;;;6.00;99.90;226.50;231333.00;;;;5046920;28;20298;-75
2021/12/05 12:51:54;;;;;;;0.08;0.08;;;5.90;99.90;226.50;231333.00;;;;5037415;28;20556;-74
2021/12/05 12:54:28;;;;;;;0.10;0.10;;;5.70;99.90;226.50;231333.00;;;;5037931;28;20228;-75
2021/12/05 12:57:05;;;;;;;0.10;0.10;;;5.80;99.90;226.50;231333.00;;;;5036960;28;20191;-75
2021/12/05 12:59:40;;;;;;;0.10;0.10;;;5.70;99.90;226.50;231333.00;;;;5037605;28;20609;-74
2021/12/05 13:02:29;;;;;;;0.10;0.10;;;5.60;99.90;226.50;231333.00;;;;5053326;28;20213;-75
2021/12/05 13:05:21;;;;;;;0.10;0.10;;;5.80;99.90;226.50;231333.00;;;;5036891;28;20218;-75
2021/12/05 13:10:42;;;;;;;0.10;0.10;;;5.80;99.90;226.50;231333.00;;;;5038081;28;20210;-75
2021/12/05 13:13:18;;;;;;;0.10;0.10;;;5.80;99.90;226.50;231333.00;;;;5032843;28;20226;-74
2021/12/05 13:15:52;;;;;;;0.10;0.10;;;5.90;99.90;226.50;231333.00;;;;5032265;28;20210;-74
2021/12/05 13:18:30;;;;;;;0.10;0.10;;;5.80;99.90;226.50;231333.00;;;;5032867;28;20209;-74
2021/12/05 13:21:06;;;;;;;0.10;0.10;;;5.70;99.90;226.50;231333.00;;;;5032622;28;20225;-74
2021/12/05 13:23:46;;;;;;;0.10;0.10;;;5.80;99.90;226.50;231333.00;;;;5032149;28;20211;-72
2021/12/05 13:26:23;;;;;;;0.10;0.10;;;5.70;99.90;226.50;231333.00;;;;5031982;28;20203;-72
2021/12/05 13:28:56;;;;;;;0.10;0.10;;;5.70;99.90;226.50;231333.00;;;;5031852;28;20241;-72
2021/12/05 13:31:39;;;;;;;0.10;0.10;;;5.70;99.90;226.50;231333.00;;;;5031805;28;20223;-72
2021/12/05 13:34:34;;;;;;;0.10;0.10;;;5.50;99.90;226.50;231333.00;;;;5031918;28;20251;-73
2021/12/05 13:37:26;;;;;;;0.10;0.10;;;5.40;99.90;226.50;231333.00;;;;5031069;28;20219;-73
2021/12/05 13:40:04;;;;;;;0.05;0.05;;;5.40;99.90;226.50;231333.00;;;;5031521;28;20286;-73
2021/12/05 13:42:46;;;;;;;0.10;0.10;;;5.60;99.90;226.50;231333.00;;;;5032050;28;20274;-73
2021/12/05 13:45:41;;;;;;;0.10;0.10;;;5.60;99.90;226.50;231333.00;;;;5031966;28;20696;-73
2021/12/05 13:48:20;;;;;;;0.10;0.10;;;5.50;99.90;226.50;231333.00;;;;5047308;28;20199;-73
2021/12/05 13:51:00;;;;;;;0.10;0.10;;;5.60;99.90;226.50;231333.00;;;;5031680;28;20227;-73
2021/12/05 13:53:43;;;;;;;0.10;0.10;;;5.60;99.90;226.50;231333.00;;;;5031729;28;20281;-73
2021/12/05 13:56:26;;;;;;;0.10;0.10;;;5.50;99.90;226.50;231333.00;;;;5031199;28;20223;-72
2021/12/05 13:59:05;;;;;;;0.10;0.10;;;5.50;99.90;226.50;231333.00;;;;5031408;28;20195;-72
2021/12/05 14:01:36;;;;;;;0.10;0.10;;;5.30;99.90;226.50;231333.00;;;;5030987;28;20603;-73
2021/12/05 14:04:24;;;;;;;0.05;0.05;;;5.30;99.90;226.50;231333.00;;;;5031236;28;20222;-72
2021/12/05 14:06:58;;;;;;;0.10;0.10;;;5.30;99.90;226.50;231333.00;;;;5030918;28;20201;-75
2021/12/05 14:09:36;;;;;;;0.10;0.10;;;5.30;99.90;226.50;231333.00;;;;5031495;28;20240;-74
2021/12/05 14:12:11;;;;;;;0.10;0.10;;;5.20;99.90;226.50;231333.00;;;;5045683;28;20194;-73
2021/12/05 14:14:44;;;;;;;0.10;0.10;;;5.10;99.90;226.50;231333.00;;;;5031016;28;20195;-74
2021/12/05 14:17:17;;;;;;;0.10;0.10;;;4.90;99.90;226.50;231333.00;;;;5030939;28;20280;-74
2021/12/05 14:19:49;;;;;;;0.10;0.10;;;4.90;99.90;226.50;231333.00;;;;5027399;28;20256;-74
2021/12/05 14:22:22;;;;;;;0.10;0.10;;;4.90;99.90;226.50;231333.00;;;;5030493;28;20265;-74
2021/12/05 14:24:55;;;;;;;0.10;0.10;;;4.80;99.90;226.50;231333.00;;;;5029328;28;20214;-74
2021/12/05 14:27:27;;;;;;;0.10;0.10;;;4.70;99.90;226.50;231333.00;;;;5030004;28;20249;-74
2021/12/05 14:29:57;;;;;;;0.10;0.10;;;4.60;99.90;226.50;231333.00;;;;5030687;28;20191;-73
2021/12/05 14:32:29;;;;;;;0.10;0.10;;;4.60;99.90;226.50;231333.00;;;;5030868;28;20223;-72
2021/12/05 14:35:02;;;;;;;0.10;0.10;;;4.60;99.90;226.50;231333.00;;;;5028517;28;20195;-72
2021/12/05 14:37:33;;;;;;;0.10;0.10;;;4.50;99.90;226.50;231333.00;;;;5029004;28;20611;-72
2021/12/05 14:40:06;;;;;;;0.10;0.10;;;4.50;99.90;226.50;231333.00;;;;5029088;28;20560;-73
2021/12/05 14:42:38;;;;;;;0.10;0.10;;;4.50;99.90;226.50;231333.00;;;;5030385;28;20223;-73
2021/12/05 14:45:11;;;;;;;0.10;0.10;;;4.50;99.90;226.50;231333.00;;;;5030339;28;20203;-73
2021/12/05 14:47:44;;;;;;;0.10;0.10;;;4.40;99.90;226.50;231333.00;;;;5030102;28;20245;-72
2021/12/05 14:50:18;;;;;;;0.10;0.10;;;4.30;99.90;226.50;231333.00;;;;5030246;28;20191;-73
2021/12/05 14:52:51;;;;;;;0.10;0.10;;;4.30;99.90;226.50;231333.00;;;;5030555;28;20345;-75
2021/12/05 14:55:22;;;;;;;0.10;0.10;;;4.30;99.90;226.50;231333.00;;;;5030423;28;20191;-73
2021/12/05 14:57:54;;;;;;;0.10;0.10;;;4.20;99.90;226.50;231333.00;;;;5029955;28;20223;-73
2021/12/05 15:00:27;;;;;;;0.03;0.03;;;4.30;99.90;226.50;231333.00;;;;5030018;28;20198;-73
2021/12/05 15:03:01;;;;;;;0.10;0.10;;;4.30;99.90;226.50;231333.00;;;;5030105;28;20215;-73
2021/12/05 15:05:30;;;;;;;0.10;0.10;;;4.30;99.90;226.50;231333.00;;;;5029093;28;20202;-72
2021/12/05 15:08:07;;;;;;;0.10;0.10;;;4.20;99.90;226.50;231333.00;;;;5029818;28;20195;-72
2021/12/05 15:10:35;;;;;;;0.10;0.10;;;4.20;99.90;226.50;231333.00;;;;5029464;28;20249;-74
2021/12/05 15:13:04;;;;;;;0.10;0.10;;;4.20;99.90;226.50;231333.00;;;;5030131;28;20225;-75
2021/12/05 15:15:32;;;;;;;0.10;0.10;;;4.10;99.90;226.50;231333.00;;;;5029840;28;20199;-76
2021/12/05 15:18:00;;;;;;;0.10;0.10;;;4.20;99.90;226.50;231333.00;;;;5030910;28;20230;-76